createdAt,value
2018-03-27T00:00:03.160Z,5.6
2018-03-27T00:15:02.580Z,5.6
2018-03-27T00:30:03.452Z,5.6
2018-03-27T00:45:03.375Z,5.6
2018-03-27T01:00:02.851Z,5.6
2018-03-27T01:15:03.122Z,5.6
2018-03-27T01:30:02.939Z,5.6
2018-03-27T01:45:03.366Z,5.6
2018-03-27T02:00:02.815Z,5.6
2018-03-27T02:15:03.054Z,5.5
2018-03-27T02:30:02.588Z,5.5
2018-03-27T02:45:02.946Z,5.5
2018-03-27T03:00:03.277Z,5.5
2018-03-27T03:15:02.770Z,5.5
2018-03-27T03:30:03.222Z,5.5
2018-03-27T03:45:02.651Z,5.5
2018-03-27T04:00:02.937Z,5.5
2018-03-27T04:15:03.246Z,5.4
2018-03-27T04:30:02.723Z,5.4
2018-03-27T04:45:03.144Z,5.4
2018-03-27T05:00:02.515Z,5.4
2018-03-27T05:15:02.787Z,5.5
2018-03-27T05:30:03.249Z,5.4
2018-03-27T05:45:02.648Z,5.5
2018-03-27T06:00:03.131Z,5.5
2018-03-27T06:15:02.644Z,5.5
2018-03-27T06:30:03.038Z,5.5
2018-03-27T06:45:02.335Z,5.5
2018-03-27T07:00:02.784Z,5.5
2018-03-27T07:15:03.039Z,5.5
2018-03-27T07:30:02.564Z,5.6
2018-03-27T07:45:02.897Z,5.6
2018-03-27T08:00:03.170Z,5.6
2018-03-27T08:15:02.507Z,5.6
2018-03-27T08:30:02.860Z,5.6
2018-03-27T08:45:03.213Z,5.7
2018-03-27T09:00:02.555Z,5.7
2018-03-27T09:15:02.880Z,5.7
2018-03-27T09:30:02.221Z,5.7
2018-03-27T09:45:02.504Z,5.8
2018-03-27T10:00:02.748Z,5.8
2018-03-27T10:15:03.071Z,5.8
2018-03-27T10:30:02.571Z,5.9
2018-03-27T10:45:02.874Z,5.9
2018-03-27T11:00:03.143Z,5.9
2018-03-27T11:15:02.511Z,6.1
2018-03-27T11:30:02.894Z,6.1
2018-03-27T11:45:03.161Z,6.2
2018-03-27T12:00:02.518Z,6.3
2018-03-27T12:15:02.785Z,6.4
2018-03-27T12:30:03.196Z,6.4
2018-03-27T12:45:02.546Z,6.5
2018-03-27T13:00:02.819Z,6.6
2018-03-27T13:15:03.136Z,6.6
2018-03-27T13:30:02.624Z,6.7
2018-03-27T13:45:02.951Z,6.8
2018-03-27T14:00:03.231Z,6.8
2018-03-27T14:15:02.632Z,6.8
2018-03-27T14:30:03.148Z,6.8
2018-03-27T14:45:02.556Z,6.8
2018-03-27T15:00:02.799Z,6.8
2018-03-27T15:15:03.163Z,6.8
2018-03-27T15:30:02.645Z,6.9
2018-03-27T15:45:02.999Z,6.9
2018-03-27T16:00:02.386Z,6.9
2018-03-27T16:15:02.668Z,6.9
2018-03-27T16:30:03.062Z,6.9
2018-03-27T16:45:02.394Z,6.9
2018-03-27T17:00:02.695Z,6.9
2018-03-27T17:15:02.915Z,6.9
2018-03-27T17:30:02.235Z,6.9
2018-03-27T17:45:02.530Z,6.8
2018-03-27T18:00:03.376Z,6.8
2018-03-27T18:15:02.717Z,6.8
2018-03-27T18:30:03.022Z,6.8
2018-03-27T18:45:02.454Z,6.8
2018-03-27T19:00:02.809Z,6.8
2018-03-27T19:15:03.039Z,6.8
2018-03-27T19:30:02.446Z,6.8
2018-03-27T19:45:02.754Z,6.8
2018-03-27T20:00:03.021Z,6.7
2018-03-27T20:15:02.423Z,6.7
2018-03-27T20:30:02.805Z,6.6
2018-03-27T20:45:03.067Z,6.6
2018-03-27T21:00:02.377Z,6.6
2018-03-27T21:15:02.619Z,6.6
2018-03-27T21:30:03.095Z,6.6
2018-03-27T21:45:02.600Z,6.6
2018-03-27T22:00:02.872Z,6.6
2018-03-27T22:15:03.245Z,6.6
2018-03-27T22:30:02.722Z,6.6
2018-03-27T22:45:02.928Z,6.6
2018-03-27T23:00:03.273Z,6.6
2018-03-27T23:15:02.642Z,6.5
2018-03-27T23:30:03.105Z,6.5
2018-03-27T23:45:02.499Z,6.5
